createdAt,value
2019-04-24T00:00:35.515Z,980.49
2019-04-24T00:05:19.838Z,980.54
2019-04-24T00:06:10.583Z,980.56
2019-04-24T00:06:57.421Z,980.58
2019-04-24T00:08:00.724Z,980.54
2019-04-24T00:08:58.832Z,980.56
2019-04-24T00:09:44.687Z,980.49
2019-04-24T00:11:17.280Z,980.54
2019-04-24T00:12:51.275Z,980.58
2019-04-24T00:13:56.425Z,980.63
2019-04-24T00:15:49.650Z,980.63
2019-04-24T00:17:20.543Z,980.49
2019-04-24T00:19:26.176Z,980.53
2019-04-24T00:20:22.397Z,980.57
2019-04-24T00:22:12.493Z,980.55
2019-04-24T00:23:10.766Z,980.52
2019-04-24T00:25:15.461Z,980.52
2019-04-24T00:25:53.935Z,980.60
2019-04-24T00:27:56.210Z,980.53
2019-04-24T00:28:53.169Z,980.50
2019-04-24T00:29:49.015Z,980.51
2019-04-24T00:30:40.481Z,980.58
2019-04-24T00:31:39.545Z,980.44
2019-04-24T00:32:32.875Z,980.58
2019-04-24T00:33:50.903Z,980.45
2019-04-24T00:34:26.459Z,980.51
2019-04-24T00:37:21.349Z,980.52
2019-04-24T00:38:25.238Z,980.58
2019-04-24T00:40:06.304Z,980.57
2019-04-24T00:42:09.943Z,980.51
2019-04-24T00:43:21.412Z,980.55
2019-04-24T00:43:59.951Z,980.54
2019-04-24T00:44:57.377Z,980.55
2019-04-24T00:45:56.667Z,980.64
2019-04-24T00:48:07.985Z,980.61
2019-04-24T00:50:49.846Z,980.53
2019-04-24T00:51:39.779Z,980.58
2019-04-24T00:52:33.546Z,980.55
2019-04-24T00:55:18.026Z,980.49
2019-04-24T00:56:35.062Z,980.46
2019-04-24T00:57:25.488Z,980.49
2019-04-24T00:58:24.474Z,980.48
2019-04-24T00:59:56.664Z,980.47
2019-04-24T01:01:22.619Z,980.46
2019-04-24T01:03:05.987Z,980.51
2019-04-24T01:07:05.896Z,980.47
2019-04-24T01:07:43.131Z,980.52
2019-04-24T01:08:41.111Z,980.43
2019-04-24T01:11:26.374Z,980.60
2019-04-24T01:12:38.688Z,980.49
2019-04-24T01:13:24.444Z,980.49
2019-04-24T01:14:17.658Z,980.60
2019-04-24T01:16:23.078Z,980.54
2019-04-24T01:17:26.385Z,980.47
2019-04-24T01:18:06.434Z,980.60
2019-04-24T01:19:08.182Z,980.54
2019-04-24T01:22:12.544Z,980.61
2019-04-24T01:23:02.361Z,980.55
2019-04-24T01:25:07.017Z,980.56
2019-04-24T01:26:43.859Z,980.58
2019-04-24T01:27:49.186Z,980.60
2019-04-24T01:28:44.836Z,980.61
2019-04-24T01:29:55.948Z,980.65
2019-04-24T01:32:32.361Z,980.63
2019-04-24T01:34:30.467Z,980.69
2019-04-24T01:35:12.511Z,980.77
2019-04-24T01:37:14.296Z,980.75
2019-04-24T01:38:16.584Z,980.80
2019-04-24T01:39:12.650Z,980.80
2019-04-24T01:39:55.661Z,980.78
2019-04-24T01:41:05.389Z,980.80
2019-04-24T01:42:09.857Z,980.87
2019-04-24T01:42:54.839Z,980.87
2019-04-24T01:43:51.297Z,980.89
2019-04-24T01:44:54.656Z,980.86
2019-04-24T01:45:58.719Z,980.89
2019-04-24T01:46:37.349Z,980.93
2019-04-24T01:47:38.156Z,980.88
2019-04-24T01:48:37.665Z,980.91
2019-04-24T01:49:44.310Z,980.85
2019-04-24T01:51:34.760Z,980.92
2019-04-24T01:53:18.775Z,980.89
2019-04-24T01:54:20.304Z,980.89
2019-04-24T01:55:09.013Z,980.91
2019-04-24T01:56:18.006Z,980.89
2019-04-24T01:57:12.810Z,981.00
2019-04-24T01:58:04.831Z,980.92
2019-04-24T01:59:11.329Z,980.95
2019-04-24T02:00:14.071Z,980.88
2019-04-24T02:01:58.660Z,980.96
2019-04-24T02:02:48.937Z,980.86
2019-04-24T02:03:51.433Z,980.97
2019-04-24T02:04:44.961Z,980.92
2019-04-24T02:05:35.545Z,980.98
2019-04-24T02:06:28.847Z,980.92
2019-04-24T02:08:29.203Z,981.04
2019-04-24T02:09:34.434Z,981.04
2019-04-24T02:10:43.123Z,981.03
2019-04-24T02:12:29.422Z,980.97
2019-04-24T02:12:33.863Z,980.99
2019-04-24T02:13:23.683Z,981.05
2019-04-24T02:15:15.349Z,981.01
2019-04-24T02:16:10.437Z,981.02
2019-04-24T02:17:10.650Z,981.03
2019-04-24T02:18:24.008Z,981.03
2019-04-24T02:18:49.636Z,981.09
2019-04-24T02:20:04.817Z,981.07
2019-04-24T02:20:49.440Z,981.10
2019-04-24T02:21:46.551Z,981.07
2019-04-24T02:22:49.164Z,981.08
2019-04-24T02:23:50.515Z,981.05
2019-04-24T02:26:31.642Z,980.99
2019-04-24T02:27:34.402Z,980.98
2019-04-24T02:28:30.622Z,981.05
2019-04-24T02:29:26.512Z,981.10
2019-04-24T02:30:43.812Z,981.12
2019-04-24T02:32:35.128Z,981.06
2019-04-24T02:37:04.253Z,980.99
2019-04-24T02:38:20.031Z,981.06
2019-04-24T02:39:21.044Z,980.98
2019-04-24T02:43:06.431Z,981.02
2019-04-24T02:43:54.666Z,981.01
2019-04-24T02:45:48.976Z,981.12
2019-04-24T02:46:43.666Z,981.06
2019-04-24T02:47:40.868Z,981.02
2019-04-24T02:50:23.036Z,981.08
2019-04-24T02:51:24.465Z,981.07
2019-04-24T02:52:30.980Z,981.09
2019-04-24T02:53:24.191Z,981.12
2019-04-24T02:55:10.934Z,981.08
2019-04-24T02:56:17.195Z,981.15
2019-04-24T02:58:05.007Z,981.10
2019-04-24T02:59:20.105Z,981.11
2019-04-24T03:04:00.971Z,981.18
2019-04-24T03:04:45.632Z,981.20
2019-04-24T03:05:53.390Z,981.11
2019-04-24T03:08:53.867Z,981.17
2019-04-24T03:09:54.358Z,981.22
2019-04-24T03:11:26.061Z,981.27
2019-04-24T03:12:56.810Z,981.26
2019-04-24T03:13:25.828Z,981.22
2019-04-24T03:14:17.014Z,981.24
2019-04-24T03:15:18.111Z,981.29
2019-04-24T03:16:12.107Z,981.32
2019-04-24T03:17:53.687Z,981.37
2019-04-24T03:19:01.879Z,981.31
2019-04-24T03:21:51.603Z,981.36
2019-04-24T03:23:04.115Z,981.32
2019-04-24T03:23:46.129Z,981.33
2019-04-24T03:24:57.512Z,981.25
2019-04-24T03:27:38.978Z,981.30
2019-04-24T03:28:42.181Z,981.35
2019-04-24T03:35:32.445Z,981.51
2019-04-24T03:37:32.609Z,981.49
2019-04-24T03:42:22.909Z,981.61
2019-04-24T03:43:22.525Z,981.53
2019-04-24T03:46:30.166Z,981.57
2019-04-24T03:47:39.828Z,981.61
2019-04-24T03:49:43.771Z,981.52
2019-04-24T03:51:53.320Z,981.65
2019-04-24T03:53:41.912Z,981.60
2019-04-24T03:54:14.606Z,981.63
2019-04-24T03:55:10.085Z,981.72
2019-04-24T03:56:16.582Z,981.77
2019-04-24T03:59:03.800Z,981.77
2019-04-24T04:00:15.000Z,981.75
2019-04-24T04:02:55.077Z,981.80
2019-04-24T04:05:20.432Z,981.79
2019-04-24T04:06:40.717Z,981.82
2019-04-24T04:07:33.405Z,981.76
2019-04-24T04:11:12.061Z,981.78
2019-04-24T04:12:36.749Z,981.78
2019-04-24T04:15:04.674Z,981.76
2019-04-24T04:16:18.225Z,981.79
2019-04-24T04:17:21.609Z,981.83
2019-04-24T04:19:43.882Z,981.90
2019-04-24T04:21:37.679Z,981.87
2019-04-24T04:24:40.810Z,981.86
2019-04-24T04:25:44.737Z,981.82
2019-04-24T04:26:33.808Z,981.87
2019-04-24T04:30:10.624Z,981.92
2019-04-24T04:32:03.380Z,982.02
2019-04-24T04:35:56.764Z,982.15
2019-04-24T04:36:56.886Z,982.09
2019-04-24T04:37:56.900Z,982.13
2019-04-24T04:39:48.729Z,982.11
2019-04-24T04:43:40.045Z,982.05
2019-04-24T04:45:21.516Z,982.08
2019-04-24T04:46:43.985Z,982.11
2019-04-24T04:49:18.755Z,982.07
2019-04-24T04:52:10.566Z,982.08
2019-04-24T04:55:59.814Z,982.07
2019-04-24T04:58:58.030Z,982.01
2019-04-24T05:00:49.614Z,982.03
2019-04-24T05:02:44.866Z,982.17
2019-04-24T05:05:25.978Z,982.21
2019-04-24T05:08:51.232Z,982.14
2019-04-24T05:09:36.888Z,982.22
2019-04-24T05:10:06.426Z,982.17
2019-04-24T05:11:08.308Z,982.21
2019-04-24T05:11:57.781Z,982.29
2019-04-24T05:14:12.463Z,982.30
2019-04-24T05:15:02.415Z,982.30
2019-04-24T05:16:07.692Z,982.33
2019-04-24T05:18:58.819Z,982.40
2019-04-24T05:20:42.272Z,982.47
2019-04-24T05:21:42.330Z,982.45
2019-04-24T05:23:34.349Z,982.56
2019-04-24T05:25:17.905Z,982.54
2019-04-24T05:26:37.086Z,982.47
2019-04-24T05:28:32.724Z,982.49
2019-04-24T05:29:07.219Z,982.50
2019-04-24T05:34:05.970Z,982.60
2019-04-24T05:36:35.251Z,982.66
2019-04-24T05:37:40.793Z,982.69
2019-04-24T05:38:32.155Z,982.65
2019-04-24T05:40:29.552Z,982.65
2019-04-24T05:41:19.502Z,982.65
2019-04-24T05:42:32.101Z,982.66
2019-04-24T05:43:32.706Z,982.65
2019-04-24T05:46:05.095Z,982.72
2019-04-24T05:47:22.101Z,982.82
2019-04-24T05:48:06.669Z,982.72
2019-04-24T05:48:56.539Z,982.71
2019-04-24T05:49:59.002Z,982.77
2019-04-24T05:50:50.151Z,982.79
2019-04-24T05:54:36.259Z,982.77
2019-04-24T05:57:53.599Z,982.71
2019-04-24T05:59:40.881Z,982.64
2019-04-24T06:00:29.285Z,982.60
2019-04-24T06:01:17.675Z,982.60
2019-04-24T06:02:26.321Z,982.63
2019-04-24T06:03:19.795Z,982.59
2019-04-24T06:04:29.672Z,982.60
2019-04-24T06:05:05.890Z,982.65
2019-04-24T06:06:19.865Z,982.65
2019-04-24T06:07:00.162Z,982.56
2019-04-24T06:08:12.270Z,982.53
2019-04-24T06:08:52.398Z,982.61
2019-04-24T06:09:54.610Z,982.65
2019-04-24T06:10:54.484Z,982.68
2019-04-24T06:11:56.671Z,982.72
2019-04-24T06:12:47.783Z,982.74
2019-04-24T06:14:37.207Z,982.81
2019-04-24T06:15:46.330Z,982.86
2019-04-24T06:16:37.424Z,982.92
2019-04-24T06:17:21.996Z,982.94
2019-04-24T06:20:35.016Z,982.98
2019-04-24T06:22:13.894Z,983.08
2019-04-24T06:23:07.880Z,983.04
2019-04-24T06:24:16.283Z,983.01
2019-04-24T06:25:06.644Z,982.94
2019-04-24T06:26:16.328Z,982.89
2019-04-24T06:27:00.019Z,983.01
2019-04-24T06:30:54.999Z,982.92
2019-04-24T06:32:05.429Z,982.93
2019-04-24T06:32:34.742Z,983.01
2019-04-24T06:33:51.630Z,982.99
2019-04-24T06:34:32.960Z,982.92
2019-04-24T06:35:46.179Z,982.96
2019-04-24T06:36:36.890Z,982.93
2019-04-24T06:38:31.424Z,982.97
2019-04-24T06:39:24.727Z,983.05
2019-04-24T06:40:20.985Z,982.98
2019-04-24T06:41:16.651Z,983.07
2019-04-24T06:42:03.652Z,983.06
2019-04-24T06:43:06.446Z,983.08
2019-04-24T06:44:00.299Z,983.17
2019-04-24T06:45:13.855Z,983.22
2019-04-24T06:47:05.283Z,983.15
2019-04-24T06:47:58.494Z,983.13
2019-04-24T06:48:39.450Z,983.14
2019-04-24T06:49:36.433Z,983.22
2019-04-24T06:53:19.319Z,983.24
2019-04-24T06:54:31.153Z,983.24
2019-04-24T06:55:35.823Z,983.21
2019-04-24T06:56:26.552Z,983.33
2019-04-24T06:59:03.605Z,983.26
2019-04-24T07:00:34.064Z,983.33
2019-04-24T07:01:13.965Z,983.32
2019-04-24T07:02:24.917Z,983.25
2019-04-24T07:05:03.301Z,983.39
2019-04-24T07:08:37.227Z,983.55
2019-04-24T07:09:34.372Z,983.43
2019-04-24T07:10:49.156Z,983.44
2019-04-24T07:11:36.311Z,983.38
2019-04-24T07:12:31.797Z,983.50
2019-04-24T07:13:40.340Z,983.44
2019-04-24T07:15:34.015Z,983.43
2019-04-24T07:16:12.314Z,983.43
2019-04-24T07:18:17.090Z,983.57
2019-04-24T07:19:00.246Z,983.61
2019-04-24T07:19:55.773Z,983.52
2019-04-24T07:21:03.450Z,983.62
2019-04-24T07:21:59.027Z,983.64
2019-04-24T07:22:51.654Z,983.59
2019-04-24T07:23:57.663Z,983.58
2019-04-24T07:26:47.932Z,983.66
2019-04-24T07:27:50.828Z,983.57
2019-04-24T07:28:40.465Z,983.53
2019-04-24T07:29:45.437Z,983.64
2019-04-24T07:30:39.994Z,983.55
2019-04-24T07:31:53.727Z,983.58
2019-04-24T07:32:33.283Z,983.55
2019-04-24T07:33:35.650Z,983.58
2019-04-24T07:34:27.256Z,983.62
2019-04-24T07:35:27.421Z,983.68
2019-04-24T07:36:18.131Z,983.54
2019-04-24T07:37:03.136Z,983.86
2019-04-24T07:38:23.150Z,983.89
2019-04-24T07:38:56.839Z,983.81
2019-04-24T07:39:57.366Z,983.62
2019-04-24T07:41:21.292Z,983.56
2019-04-24T07:42:53.846Z,983.56
2019-04-24T07:43:59.731Z,983.51
2019-04-24T07:44:42.264Z,983.47
2019-04-24T07:45:50.858Z,983.56
2019-04-24T07:46:41.920Z,983.50
2019-04-24T07:47:33.082Z,983.51
2019-04-24T07:48:46.334Z,983.54
2019-04-24T07:49:32.011Z,983.54
2019-04-24T07:50:44.529Z,983.06
2019-04-24T07:52:35.655Z,983.21
2019-04-24T07:53:27.463Z,983.35
2019-04-24T07:54:22.927Z,983.11
2019-04-24T07:55:12.776Z,983.11
2019-04-24T07:58:04.269Z,983.83
2019-04-24T08:00:57.189Z,983.95
2019-04-24T08:02:04.571Z,983.50
2019-04-24T08:02:50.528Z,983.52
2019-04-24T08:03:59.168Z,983.69
2019-04-24T08:04:51.995Z,983.90
2019-04-24T08:05:53.924Z,983.54
2019-04-24T08:07:50.553Z,983.55
2019-04-24T08:08:46.486Z,983.66
2019-04-24T08:09:51.432Z,983.62
2019-04-24T08:11:25.577Z,983.88
2019-04-24T08:12:29.242Z,983.94
2019-04-24T08:13:18.873Z,983.97
2019-04-24T08:14:35.091Z,983.90
2019-04-24T08:15:17.739Z,983.67
2019-04-24T08:16:04.531Z,983.79
2019-04-24T08:17:12.935Z,984.11
2019-04-24T08:18:02.381Z,983.84
2019-04-24T08:18:58.217Z,984.16
2019-04-24T08:20:12.713Z,983.98
2019-04-24T08:21:46.874Z,984.13
2019-04-24T08:23:00.848Z,984.11
2019-04-24T08:26:44.615Z,983.83
2019-04-24T08:27:43.286Z,983.62
2019-04-24T08:28:42.147Z,983.85
2019-04-24T08:29:32.977Z,984.38
2019-04-24T08:30:30.766Z,984.48
2019-04-24T08:31:32.190Z,984.53
2019-04-24T08:33:40.321Z,984.73
2019-04-24T08:34:28.101Z,984.54
2019-04-24T08:35:04.535Z,984.29
2019-04-24T08:36:01.488Z,984.08
2019-04-24T08:37:08.126Z,984.43
2019-04-24T08:38:02.716Z,984.75
2019-04-24T08:39:51.294Z,984.40
2019-04-24T08:42:15.569Z,984.59
2019-04-24T08:43:44.073Z,983.70
2019-04-24T08:44:50.690Z,983.95
2019-04-24T08:45:39.920Z,984.00
2019-04-24T08:46:34.329Z,983.98
2019-04-24T08:47:46.402Z,984.07
2019-04-24T08:49:46.266Z,984.44
2019-04-24T08:52:44.704Z,984.36
2019-04-24T08:55:12.015Z,984.45
2019-04-24T08:57:02.448Z,984.06
2019-04-24T08:58:09.186Z,983.91
2019-04-24T08:58:48.215Z,984.50
2019-04-24T09:00:57.651Z,984.56
2019-04-24T09:01:48.605Z,984.52
2019-04-24T09:02:54.850Z,984.36
2019-04-24T09:04:49.670Z,984.37
2019-04-24T09:05:37.634Z,984.40
2019-04-24T09:06:24.017Z,984.55
2019-04-24T09:07:31.820Z,984.60
2019-04-24T09:09:14.910Z,984.53
2019-04-24T09:12:09.806Z,984.53
2019-04-24T09:14:07.773Z,984.71
2019-04-24T09:14:57.392Z,984.32
2019-04-24T09:15:59.937Z,984.05
2019-04-24T09:17:59.175Z,983.81
2019-04-24T09:19:04.432Z,984.51
2019-04-24T09:19:57.421Z,984.72
2019-04-24T09:20:49.156Z,984.63
2019-04-24T09:22:41.738Z,984.43
2019-04-24T09:24:03.356Z,984.48
2019-04-24T09:27:05.133Z,984.60
2019-04-24T09:27:28.404Z,984.45
2019-04-24T09:28:26.581Z,984.13
2019-04-24T09:29:23.547Z,984.09
2019-04-24T09:30:20.592Z,984.29
2019-04-24T09:31:10.512Z,984.72
2019-04-24T09:32:34.555Z,984.91
2019-04-24T09:33:09.667Z,984.69
2019-04-24T09:34:56.675Z,984.35
2019-04-24T09:37:55.225Z,984.53
2019-04-24T09:40:06.535Z,984.41
2019-04-24T09:41:52.371Z,984.68
2019-04-24T09:44:28.360Z,984.51
2019-04-24T09:47:25.627Z,984.60
2019-04-24T09:49:02.370Z,984.73
2019-04-24T09:51:23.050Z,984.96
2019-04-24T09:53:58.564Z,984.49
2019-04-24T09:55:03.141Z,984.52
2019-04-24T09:55:57.351Z,984.57
2019-04-24T09:57:51.043Z,984.58
2019-04-24T09:58:54.940Z,984.75
2019-04-24T09:59:43.828Z,984.51
2019-04-24T10:01:04.982Z,984.40
2019-04-24T10:01:57.759Z,984.35
2019-04-24T10:02:33.360Z,983.96
2019-04-24T10:03:42.495Z,984.25
2019-04-24T10:05:26.285Z,984.66
2019-04-24T10:08:12.599Z,984.57
2019-04-24T10:09:10.135Z,984.25
2019-04-24T10:10:13.903Z,984.06
2019-04-24T10:12:17.750Z,984.19
2019-04-24T10:12:54.200Z,984.22
2019-04-24T10:14:58.778Z,984.72
2019-04-24T10:15:48.791Z,984.69
2019-04-24T10:17:51.444Z,984.64
2019-04-24T10:19:59.869Z,984.50
2019-04-24T10:20:28.722Z,984.07
2019-04-24T10:21:27.259Z,984.22
2019-04-24T10:22:27.908Z,984.57
2019-04-24T10:23:27.035Z,984.65
2019-04-24T10:24:40.791Z,984.72
2019-04-24T10:25:17.497Z,984.39
2019-04-24T10:26:12.680Z,984.20
2019-04-24T10:27:08.775Z,984.13
2019-04-24T10:28:07.961Z,984.40
2019-04-24T10:30:00.440Z,984.13
2019-04-24T10:33:58.887Z,984.56
2019-04-24T10:34:47.222Z,984.40
2019-04-24T10:35:45.471Z,984.36
2019-04-24T10:36:56.195Z,984.30
2019-04-24T10:38:12.570Z,983.89
2019-04-24T10:40:30.416Z,984.00
2019-04-24T10:42:16.530Z,984.70
2019-04-24T10:43:22.398Z,984.49
2019-04-24T10:45:14.397Z,984.35
2019-04-24T10:46:37.120Z,984.18
2019-04-24T10:47:21.776Z,984.47
2019-04-24T10:48:04.642Z,984.35
2019-04-24T10:49:09.704Z,984.17
2019-04-24T10:50:59.003Z,984.16
2019-04-24T10:52:05.198Z,984.29
2019-04-24T10:52:59.279Z,984.29
2019-04-24T10:53:45.969Z,983.92
2019-04-24T10:55:53.325Z,984.26
2019-04-24T10:56:39.325Z,984.45
2019-04-24T10:57:44.632Z,984.22
2019-04-24T10:58:34.133Z,984.22
2019-04-24T10:59:34.099Z,984.30
2019-04-24T11:00:38.380Z,984.25
2019-04-24T11:02:41.639Z,984.49
2019-04-24T11:03:35.044Z,984.07
2019-04-24T11:04:37.607Z,983.90
2019-04-24T11:05:26.694Z,983.74
2019-04-24T11:06:07.010Z,984.05
2019-04-24T11:08:15.937Z,983.96
2019-04-24T11:09:24.748Z,984.12
2019-04-24T11:10:20.780Z,984.00
2019-04-24T11:10:56.626Z,983.76
2019-04-24T11:13:00.670Z,984.08
2019-04-24T11:13:50.124Z,983.78
2019-04-24T11:14:38.704Z,983.87
2019-04-24T11:15:48.926Z,983.87
2019-04-24T11:16:52.218Z,983.90
2019-04-24T11:18:33.339Z,983.85
2019-04-24T11:19:36.041Z,983.75
2019-04-24T11:20:26.198Z,983.81
2019-04-24T11:22:19.176Z,983.94
2019-04-24T11:23:27.133Z,983.84
2019-04-24T11:24:20.252Z,983.75
2019-04-24T11:26:13.631Z,983.63
2019-04-24T11:28:00.802Z,984.17
2019-04-24T11:30:02.137Z,983.61
2019-04-24T11:30:56.044Z,983.47
2019-04-24T11:31:50.061Z,983.63
2019-04-24T11:32:43.424Z,983.73
2019-04-24T11:34:09.855Z,984.11
2019-04-24T11:35:52.064Z,983.93
2019-04-24T11:36:35.199Z,983.61
2019-04-24T11:37:31.124Z,983.66
2019-04-24T11:38:44.695Z,983.63
2019-04-24T11:39:57.294Z,983.63
2019-04-24T11:41:25.359Z,983.67
2019-04-24T11:42:13.750Z,983.82
2019-04-24T11:43:03.368Z,983.72
2019-04-24T11:44:14.532Z,983.58
2019-04-24T11:45:11.280Z,983.50
2019-04-24T11:46:29.686Z,983.49
2019-04-24T11:47:17.679Z,983.87
2019-04-24T11:48:04.165Z,984.00
2019-04-24T11:49:03.205Z,983.87
2019-04-24T11:49:55.875Z,983.74
2019-04-24T11:51:52.281Z,983.55
2019-04-24T11:53:34.893Z,983.53
2019-04-24T11:54:52.647Z,983.46
2019-04-24T11:57:47.203Z,983.45
2019-04-24T11:58:58.592Z,983.32
2019-04-24T11:59:53.987Z,983.46
2019-04-24T12:01:03.042Z,983.18
2019-04-24T12:02:18.624Z,983.14
2019-04-24T12:03:02.814Z,983.36
2019-04-24T12:04:08.993Z,983.38
2019-04-24T12:06:58.459Z,983.56
2019-04-24T12:07:59.936Z,983.67
2019-04-24T12:08:54.681Z,983.56
2019-04-24T12:09:49.192Z,983.57
2019-04-24T12:10:43.067Z,983.47
2019-04-24T12:12:32.309Z,983.39
2019-04-24T12:14:30.158Z,983.54
2019-04-24T12:15:30.352Z,983.67
2019-04-24T12:16:28.099Z,983.61
2019-04-24T12:17:21.417Z,983.52
2019-04-24T12:18:25.301Z,983.43
2019-04-24T12:21:16.626Z,983.25
2019-04-24T12:23:05.805Z,983.20
2019-04-24T12:24:02.956Z,983.45
2019-04-24T12:24:58.785Z,983.54
2019-04-24T12:27:56.436Z,983.68
2019-04-24T12:28:53.983Z,983.49
2019-04-24T12:29:42.075Z,983.33
2019-04-24T12:30:46.606Z,983.37
2019-04-24T12:31:32.822Z,983.50
2019-04-24T12:32:27.569Z,983.45
2019-04-24T12:33:34.742Z,983.47
2019-04-24T12:34:27.366Z,983.32
2019-04-24T12:35:22.147Z,983.21
2019-04-24T12:36:43.696Z,983.21
2019-04-24T12:38:14.423Z,982.82
2019-04-24T12:40:19.942Z,982.57
2019-04-24T12:41:02.559Z,982.70
2019-04-24T12:42:17.693Z,982.75
2019-04-24T12:42:59.415Z,982.77
2019-04-24T12:44:44.966Z,982.90
2019-04-24T12:45:58.219Z,982.88
2019-04-24T12:46:56.147Z,982.76
2019-04-24T12:47:40.402Z,983.02
2019-04-24T12:48:51.029Z,983.10
2019-04-24T12:50:45.506Z,983.19
2019-04-24T12:51:36.772Z,983.11
2019-04-24T12:52:29.180Z,983.16
2019-04-24T12:53:29.980Z,983.17
2019-04-24T12:54:38.283Z,982.98
2019-04-24T12:55:21.790Z,983.06
2019-04-24T12:56:20.577Z,983.00
2019-04-24T12:58:20.452Z,983.20
2019-04-24T12:59:23.838Z,983.21
2019-04-24T12:59:55.072Z,983.40
2019-04-24T13:01:06.642Z,983.19
2019-04-24T13:04:55.766Z,983.03
2019-04-24T13:06:34.579Z,982.83
2019-04-24T13:07:56.785Z,982.84
2019-04-24T13:08:52.816Z,982.92
2019-04-24T13:09:41.884Z,982.98
2019-04-24T13:10:41.537Z,982.83
2019-04-24T13:11:28.671Z,983.04
2019-04-24T13:12:52.274Z,983.03
2019-04-24T13:13:33.586Z,983.15
2019-04-24T13:14:29.766Z,982.93
2019-04-24T13:15:16.272Z,983.02
2019-04-24T13:16:13.679Z,982.88
2019-04-24T13:17:22.620Z,982.75
2019-04-24T13:18:11.289Z,982.70
2019-04-24T13:19:37.126Z,982.76
2019-04-24T13:20:36.762Z,982.59
2019-04-24T13:21:37.271Z,982.82
2019-04-24T13:22:37.667Z,982.87
2019-04-24T13:23:40.106Z,982.98
2019-04-24T13:24:39.755Z,983.14
2019-04-24T13:25:46.927Z,983.19
2019-04-24T13:26:46.880Z,983.17
2019-04-24T13:27:52.118Z,983.10
2019-04-24T13:29:44.452Z,983.01
2019-04-24T13:30:35.646Z,982.96
2019-04-24T13:32:32.500Z,982.62
2019-04-24T13:34:25.578Z,982.75
2019-04-24T13:35:21.039Z,982.87
2019-04-24T13:36:20.612Z,982.93
2019-04-24T13:37:11.522Z,982.92
2019-04-24T13:39:09.509Z,982.97
2019-04-24T13:39:59.605Z,983.05
2019-04-24T13:42:02.175Z,982.99
2019-04-24T13:42:58.536Z,982.97
2019-04-24T13:45:01.432Z,982.85
2019-04-24T13:45:53.443Z,982.82
2019-04-24T13:46:42.844Z,982.60
2019-04-24T13:47:50.130Z,982.63
2019-04-24T13:52:57.841Z,983.06
2019-04-24T13:56:03.306Z,982.59
2019-04-24T13:57:09.272Z,982.53
2019-04-24T13:59:00.278Z,982.59
2019-04-24T14:00:01.952Z,982.62
2019-04-24T14:01:19.276Z,982.73
2019-04-24T14:01:56.619Z,982.67
2019-04-24T14:04:02.124Z,982.71
2019-04-24T14:04:47.141Z,982.77
2019-04-24T14:06:03.928Z,982.87
2019-04-24T14:06:56.087Z,982.64
2019-04-24T14:07:56.287Z,982.61
2019-04-24T14:08:51.122Z,982.51
2019-04-24T14:10:11.716Z,982.48
2019-04-24T14:10:46.229Z,982.46
2019-04-24T14:13:05.243Z,982.58
2019-04-24T14:14:12.236Z,982.65
2019-04-24T14:16:14.867Z,982.64
2019-04-24T14:17:03.597Z,982.55
2019-04-24T14:18:13.509Z,982.49
2019-04-24T14:19:15.543Z,982.58
2019-04-24T14:20:17.267Z,982.58
2019-04-24T14:20:54.348Z,982.54
2019-04-24T14:21:52.216Z,982.54
2019-04-24T14:22:55.956Z,982.47
2019-04-24T14:23:59.167Z,982.48
2019-04-24T14:24:44.449Z,982.33
2019-04-24T14:25:40.306Z,982.27
2019-04-24T14:28:00.182Z,982.24
2019-04-24T14:29:30.047Z,982.42
2019-04-24T14:30:32.030Z,982.41
2019-04-24T14:31:25.132Z,982.30
2019-04-24T14:33:20.466Z,982.44
2019-04-24T14:34:18.535Z,982.48
2019-04-24T14:36:13.697Z,982.40
2019-04-24T14:37:06.497Z,982.29
2019-04-24T14:39:01.960Z,982.30
2019-04-24T14:40:01.540Z,982.31
2019-04-24T14:40:52.852Z,982.05
2019-04-24T14:42:57.439Z,982.21
2019-04-24T14:45:49.129Z,981.72
2019-04-24T14:46:38.249Z,981.81
2019-04-24T14:48:31.694Z,981.94
2019-04-24T14:51:17.695Z,982.15
2019-04-24T14:52:21.888Z,982.05
2019-04-24T14:53:03.236Z,982.00
2019-04-24T14:54:09.520Z,981.98
2019-04-24T14:55:22.424Z,982.09
2019-04-24T14:56:06.271Z,982.03
2019-04-24T14:57:05.757Z,981.97
2019-04-24T14:59:55.427Z,981.66
2019-04-24T15:00:46.895Z,981.63
2019-04-24T15:02:52.896Z,981.61
2019-04-24T15:03:39.270Z,981.49
